createdAt,value
2022-11-04T00:01:37.649Z,99.90
2022-11-04T00:04:25.336Z,99.90
2022-11-04T00:07:30.840Z,99.90
2022-11-04T00:10:16.330Z,99.90
2022-11-04T00:13:01.614Z,99.90
2022-11-04T00:16:05.764Z,99.90
2022-11-04T00:18:51.097Z,99.90
2022-11-04T00:21:55.350Z,99.90
2022-11-04T00:24:59.944Z,99.90
2022-11-04T00:28:03.772Z,99.90
2022-11-04T00:30:49.121Z,93.80
2022-11-04T00:33:34.591Z,32.80
2022-11-04T00:36:20.129Z,76.90
2022-11-04T00:39:05.770Z,99.90
2022-11-04T00:41:51.443Z,99.90
2022-11-04T00:44:37.145Z,99.90
2022-11-04T00:47:22.620Z,99.90
2022-11-04T00:50:08.808Z,99.90
2022-11-04T00:53:04.373Z,85.50
2022-11-04T00:55:49.613Z,1.00
2022-11-04T00:58:34.943Z,1.00
2022-11-04T01:01:20.610Z,1.00
2022-11-04T01:04:06.050Z,1.00
2022-11-04T01:06:51.541Z,1.00
2022-11-04T01:09:36.971Z,1.00
2022-11-04T01:12:22.645Z,1.00
2022-11-04T01:15:08.524Z,1.00
2022-11-04T01:17:53.976Z,1.00
2022-11-04T01:20:39.293Z,99.90
2022-11-04T01:23:24.642Z,99.90
2022-11-04T01:26:18.691Z,99.90
2022-11-04T01:29:04.475Z,99.90
2022-11-04T01:31:53.143Z,99.90
2022-11-04T01:34:42.472Z,99.90
2022-11-04T01:37:28.844Z,99.90
2022-11-04T01:40:16.353Z,99.90
2022-11-04T01:43:01.793Z,99.90
2022-11-04T01:45:58.720Z,99.90
2022-11-04T01:48:43.962Z,99.90
2022-11-04T01:51:32.016Z,99.90
2022-11-04T01:54:18.186Z,99.90
2022-11-04T01:57:06.357Z,1.00
2022-11-04T01:59:52.378Z,99.90
2022-11-04T02:02:44.715Z,99.90
2022-11-04T02:05:31.081Z,99.90
2022-11-04T02:08:17.996Z,1.00
2022-11-04T02:11:04.403Z,99.90
2022-11-04T02:13:49.942Z,1.00
2022-11-04T02:16:43.302Z,1.00
2022-11-04T02:20:11.874Z,1.00
2022-11-04T02:23:34.099Z,1.00
2022-11-04T02:26:44.885Z,1.00
2022-11-04T02:29:59.787Z,1.00
2022-11-04T02:32:48.145Z,1.00
2022-11-04T02:35:48.689Z,1.00
2022-11-04T02:38:39.638Z,1.00
2022-11-04T02:41:34.297Z,1.00
2022-11-04T02:44:24.565Z,1.00
2022-11-04T02:47:19.997Z,1.00
2022-11-04T02:50:13.240Z,1.00
2022-11-04T02:53:06.522Z,1.00
2022-11-04T02:55:55.774Z,99.90
2022-11-04T02:58:49.383Z,99.90
2022-11-04T03:01:36.851Z,99.90
2022-11-04T03:04:26.512Z,99.90
2022-11-04T03:07:14.648Z,99.90
2022-11-04T03:10:09.105Z,99.90
2022-11-04T03:13:03.148Z,99.90
2022-11-04T03:15:51.501Z,99.90
2022-11-04T03:18:57.025Z,99.90
2022-11-04T03:21:47.369Z,1.00
2022-11-04T03:24:32.860Z,99.90
2022-11-04T03:27:43.241Z,99.90
2022-11-04T03:30:35.274Z,99.90
2022-11-04T03:33:52.629Z,99.90
2022-11-04T03:36:38.342Z,99.90
2022-11-04T03:39:24.147Z,99.90
2022-11-04T03:42:21.034Z,99.90
2022-11-04T03:45:07.208Z,99.90
2022-11-04T03:47:52.800Z,99.90
2022-11-04T03:50:42.642Z,99.90
2022-11-04T03:53:29.222Z,99.90
2022-11-04T03:57:00.187Z,99.90
2022-11-04T03:59:51.659Z,99.90
2022-11-04T04:02:43.275Z,99.90
2022-11-04T04:05:36.430Z,99.90
2022-11-04T04:09:01.332Z,99.90
2022-11-04T04:12:03.428Z,99.90
2022-11-04T04:14:54.834Z,99.90
2022-11-04T04:17:47.045Z,99.90
2022-11-04T04:20:35.651Z,99.90
2022-11-04T04:23:43.455Z,99.90
2022-11-04T04:26:49.169Z,99.90
2022-11-04T04:29:37.261Z,99.90
2022-11-04T04:32:24.533Z,99.90
2022-11-04T04:35:29.199Z,99.90
2022-11-04T04:38:43.026Z,99.90
2022-11-04T04:41:49.904Z,99.90
2022-11-04T04:44:53.947Z,99.90
2022-11-04T04:47:45.211Z,99.90
2022-11-04T04:50:43.695Z,1.00
2022-11-04T04:53:29.356Z,1.00
2022-11-04T04:56:14.847Z,1.00
2022-11-04T04:59:00.053Z,1.00
2022-11-04T05:01:45.607Z,1.00
2022-11-04T05:04:31.356Z,1.00
2022-11-04T05:07:17.056Z,1.00
2022-11-04T05:10:02.762Z,1.00
2022-11-04T05:13:06.843Z,1.00
2022-11-04T05:15:53.137Z,1.00
2022-11-04T05:18:38.731Z,1.00
2022-11-04T05:21:24.202Z,1.00
2022-11-04T05:24:10.361Z,24.40
2022-11-04T05:26:56.557Z,70.90
2022-11-04T05:29:42.602Z,1.00
2022-11-04T05:32:30.370Z,5.80
2022-11-04T05:35:15.616Z,51.10
2022-11-04T05:38:01.193Z,99.90
2022-11-04T05:40:46.759Z,99.90
2022-11-04T05:43:32.747Z,99.90
2022-11-04T05:46:18.195Z,99.90
2022-11-04T05:49:03.580Z,99.90
2022-11-04T05:51:49.062Z,99.90
2022-11-04T05:54:34.371Z,1.00
2022-11-04T05:57:19.743Z,99.90
2022-11-04T06:00:06.907Z,1.00
2022-11-04T06:02:52.534Z,1.00
2022-11-04T06:05:37.846Z,99.90
2022-11-04T06:08:23.252Z,1.00
2022-11-04T06:11:08.531Z,99.90
2022-11-04T06:13:55.232Z,1.00
2022-11-04T06:16:40.805Z,1.00
2022-11-04T06:19:26.138Z,1.00
2022-11-04T06:22:12.941Z,1.00
2022-11-04T06:24:58.470Z,1.00
2022-11-04T06:27:43.971Z,1.00
2022-11-04T06:30:29.624Z,1.00
2022-11-04T06:33:15.176Z,1.00
2022-11-04T06:36:02.732Z,1.00
2022-11-04T06:38:48.359Z,1.00
2022-11-04T06:41:36.537Z,1.00
2022-11-04T06:44:21.983Z,12.70
2022-11-04T06:47:08.103Z,11.40
2022-11-04T06:49:53.265Z,1.00
2022-11-04T06:52:42.255Z,1.00
2022-11-04T06:55:28.136Z,1.00
2022-11-04T06:58:13.743Z,1.00
2022-11-04T07:00:59.299Z,1.00
2022-11-04T07:03:44.920Z,1.00
2022-11-04T07:06:30.708Z,1.00
2022-11-04T07:09:17.371Z,1.00
2022-11-04T07:12:02.965Z,1.00
2022-11-04T07:14:48.598Z,1.00
2022-11-04T07:17:34.191Z,3.90
2022-11-04T07:20:19.953Z,1.00
2022-11-04T07:23:05.863Z,1.00
2022-11-04T07:25:51.214Z,26.90
2022-11-04T07:28:37.033Z,48.60
2022-11-04T07:31:22.707Z,7.10
2022-11-04T07:34:08.160Z,1.00
2022-11-04T07:36:53.765Z,1.00
2022-11-04T07:39:39.187Z,1.00
2022-11-04T07:42:24.984Z,1.00
2022-11-04T07:45:11.129Z,1.00
2022-11-04T07:47:58.011Z,1.00
2022-11-04T07:50:43.658Z,1.00
2022-11-04T07:53:30.578Z,1.00
2022-11-04T07:56:16.584Z,1.00
2022-11-04T07:59:02.192Z,1.00
2022-11-04T08:01:47.633Z,41.80
2022-11-04T08:04:33.539Z,99.90
2022-11-04T08:07:19.115Z,99.90
2022-11-04T08:10:05.339Z,99.90
2022-11-04T08:12:51.614Z,77.70
2022-11-04T08:15:37.030Z,57.00
2022-11-04T08:18:22.777Z,57.50
2022-11-04T08:21:09.088Z,79.10
2022-11-04T08:23:54.735Z,93.50
2022-11-04T08:26:40.261Z,99.90
2022-11-04T08:29:25.744Z,99.90
2022-11-04T08:32:11.478Z,27.20
2022-11-04T08:34:56.890Z,88.10
2022-11-04T08:37:41.964Z,99.90
2022-11-04T08:40:27.540Z,18.80
2022-11-04T08:43:13.228Z,1.00
2022-11-04T08:45:58.642Z,1.00
2022-11-04T08:48:45.601Z,1.00
2022-11-04T08:51:32.856Z,1.00
2022-11-04T08:54:18.681Z,1.00
2022-11-04T08:57:04.339Z,1.00
2022-11-04T08:59:50.019Z,1.00
2022-11-04T09:02:35.743Z,1.00
2022-11-04T09:05:22.272Z,1.00
2022-11-04T09:08:08.055Z,1.00
2022-11-04T09:10:53.388Z,1.00
2022-11-04T09:13:39.803Z,1.00
2022-11-04T09:16:25.945Z,1.00
2022-11-04T09:19:11.560Z,1.00
2022-11-04T09:21:57.119Z,1.00
2022-11-04T09:24:42.444Z,1.00
2022-11-04T09:27:27.733Z,1.00
2022-11-04T09:30:14.013Z,1.00
2022-11-04T09:32:59.661Z,1.00
2022-11-04T09:35:54.861Z,1.00
2022-11-04T09:38:41.451Z,1.00
2022-11-04T09:41:51.560Z,1.00
2022-11-04T09:45:07.357Z,1.00
2022-11-04T09:47:53.393Z,99.90
2022-11-04T09:50:47.217Z,99.90
2022-11-04T09:53:50.195Z,99.90
2022-11-04T09:56:38.088Z,99.90
2022-11-04T09:59:27.495Z,99.90
2022-11-04T10:02:34.308Z,99.90
2022-11-04T10:05:41.769Z,99.90
2022-11-04T10:08:42.287Z,99.90
2022-11-04T10:11:49.126Z,99.90
2022-11-04T10:14:35.804Z,65.00
2022-11-04T10:17:21.468Z,52.10
2022-11-04T10:20:28.687Z,99.90
2022-11-04T10:23:42.464Z,99.90
2022-11-04T10:26:47.241Z,99.90
2022-11-04T10:29:37.978Z,77.30
2022-11-04T10:32:40.420Z,55.40
2022-11-04T10:35:29.061Z,72.00
2022-11-04T10:38:20.190Z,59.50
2022-11-04T10:41:23.903Z,25.20
2022-11-04T10:44:20.637Z,33.20
2022-11-04T10:47:42.647Z,99.90
2022-11-04T10:50:37.687Z,99.90
2022-11-04T10:53:28.791Z,99.90
2022-11-04T10:56:41.862Z,99.90
2022-11-04T10:59:49.602Z,82.80
2022-11-04T11:02:38.099Z,67.50
2022-11-04T11:05:25.059Z,9.80
2022-11-04T11:08:30.628Z,1.00
2022-11-04T11:11:17.009Z,1.00
2022-11-04T11:14:02.953Z,1.00
2022-11-04T11:16:48.295Z,1.00
2022-11-04T11:19:46.318Z,1.00
2022-11-04T11:22:37.549Z,1.00
2022-11-04T11:25:33.493Z,1.00
2022-11-04T11:28:28.819Z,1.00
2022-11-04T11:31:23.403Z,1.00
2022-11-04T11:34:37.567Z,1.00
2022-11-04T11:37:24.792Z,1.00
2022-11-04T11:40:32.175Z,1.00
2022-11-04T11:43:27.507Z,1.00
2022-11-04T11:46:13.388Z,1.00
2022-11-04T11:49:05.159Z,99.90
2022-11-04T11:51:50.844Z,99.90
2022-11-04T11:54:37.714Z,99.90
2022-11-04T11:57:46.635Z,99.90
2022-11-04T12:01:21.897Z,99.90
2022-11-04T12:10:51.110Z,16.40
2022-11-04T12:13:41.873Z,91.10
2022-11-04T12:16:31.702Z,99.90
2022-11-04T12:18:58.516Z,99.90
2022-11-04T12:21:33.452Z,33.80
2022-11-04T12:24:21.627Z,1.00
2022-11-04T12:27:07.883Z,1.00
2022-11-04T12:30:00.512Z,1.00
2022-11-04T12:32:39.829Z,1.00
2022-11-04T12:35:34.490Z,1.00
2022-11-04T12:38:23.286Z,99.90
2022-11-04T12:42:20.188Z,1.00
2022-11-04T12:44:36.915Z,1.00
2022-11-04T12:47:23.680Z,1.00
2022-11-04T12:50:15.938Z,1.00
2022-11-04T12:53:35.579Z,99.90
2022-11-04T12:56:09.569Z,1.00
2022-11-04T12:58:45.476Z,99.90
2022-11-04T13:01:15.461Z,99.90
2022-11-04T13:04:16.893Z,99.90
2022-11-04T13:06:48.008Z,98.90
2022-11-04T13:09:33.509Z,99.90
2022-11-04T13:12:06.247Z,99.90
2022-11-04T13:14:44.935Z,99.90
2022-11-04T13:17:15.072Z,99.90
2022-11-04T13:19:48.432Z,1.00
2022-11-04T13:22:23.043Z,99.90
2022-11-04T13:24:57.477Z,99.90
2022-11-04T13:27:33.252Z,99.90
2022-11-04T13:30:26.406Z,99.90
2022-11-04T13:33:02.814Z,1.00
2022-11-04T13:35:38.583Z,1.00
2022-11-04T13:38:14.793Z,1.00
2022-11-04T13:41:21.868Z,99.90
2022-11-04T13:43:59.958Z,99.90
2022-11-04T13:46:30.530Z,1.00
2022-11-04T13:49:07.400Z,99.90
2022-11-04T13:51:48.620Z,99.90
2022-11-04T13:54:30.591Z,99.90
2022-11-04T13:57:10.065Z,99.90
2022-11-04T13:59:36.991Z,99.90
2022-11-04T14:02:19.138Z,1.00
2022-11-04T14:04:47.042Z,1.00
2022-11-04T14:07:17.732Z,1.00
2022-11-04T14:09:44.479Z,1.00
2022-11-04T14:12:11.410Z,1.00
2022-11-04T14:14:42.472Z,1.00
2022-11-04T14:17:33.981Z,1.00
2022-11-04T14:20:21.369Z,1.00
2022-11-04T14:22:57.040Z,1.00
2022-11-04T14:25:31.329Z,1.00
2022-11-04T14:28:10.191Z,1.00
2022-11-04T14:30:45.839Z,1.00
2022-11-04T14:33:55.090Z,1.00
2022-11-04T14:36:32.164Z,1.00
2022-11-04T14:39:06.609Z,1.00
2022-11-04T14:41:50.154Z,1.00
2022-11-04T14:44:32.376Z,1.00
2022-11-04T14:47:27.597Z,1.00
2022-11-04T14:50:05.575Z,1.00
2022-11-04T14:52:40.254Z,1.00
2022-11-04T14:55:29.525Z,1.00
2022-11-04T14:58:00.630Z,1.00
2022-11-04T15:00:53.112Z,1.00
2022-11-04T15:06:11.682Z,1.00
2022-11-04T15:08:41.455Z,99.90
2022-11-04T15:11:12.490Z,99.90
2022-11-04T15:13:51.173Z,1.00
2022-11-04T15:16:20.701Z,1.00
2022-11-04T15:18:47.985Z,1.00
2022-11-04T15:21:15.038Z,1.00
2022-11-04T15:23:50.131Z,1.00
2022-11-04T15:26:29.876Z,1.00
2022-11-04T15:28:59.666Z,1.00
2022-11-04T15:31:28.764Z,1.00
2022-11-04T15:34:09.204Z,1.00
2022-11-04T15:36:42.061Z,1.00
2022-11-04T15:39:20.002Z,1.00
2022-11-04T15:42:06.499Z,13.80
2022-11-04T15:44:35.451Z,1.00
2022-11-04T15:47:18.393Z,1.00
2022-11-04T15:49:47.193Z,13.50
2022-11-04T15:52:21.658Z,1.00
2022-11-04T15:54:50.678Z,25.90
2022-11-04T15:57:24.918Z,1.00
2022-11-04T16:00:00.494Z,13.90
2022-11-04T16:02:32.940Z,14.60
2022-11-04T16:05:08.266Z,13.40
2022-11-04T16:07:37.889Z,1.00
2022-11-04T16:10:24.922Z,58.00
2022-11-04T16:12:57.236Z,32.00
2022-11-04T16:15:36.928Z,99.90
2022-11-04T16:18:05.608Z,99.90
2022-11-04T16:20:34.644Z,99.90
2022-11-04T16:23:02.539Z,99.90
2022-11-04T16:25:34.381Z,99.90
2022-11-04T16:28:02.119Z,99.90
2022-11-04T16:30:29.381Z,99.90
2022-11-04T16:33:10.094Z,99.90
2022-11-04T16:35:42.546Z,99.90
2022-11-04T16:38:09.287Z,97.80
2022-11-04T16:40:36.289Z,99.90
2022-11-04T16:43:03.151Z,99.90
2022-11-04T16:45:34.809Z,99.90
2022-11-04T16:48:01.639Z,15.50
2022-11-04T16:50:29.104Z,1.00
2022-11-04T16:52:56.316Z,1.00
2022-11-04T16:55:23.991Z,1.00
2022-11-04T16:57:59.607Z,1.00
2022-11-04T17:00:27.700Z,5.00
2022-11-04T17:02:54.535Z,22.80
2022-11-04T17:05:21.268Z,6.60
2022-11-04T17:07:53.626Z,99.90
2022-11-04T17:10:24.645Z,99.90
2022-11-04T17:12:51.672Z,99.90
2022-11-04T17:15:19.076Z,49.10
2022-11-04T17:17:46.009Z,99.90
2022-11-04T17:20:15.556Z,47.40
2022-11-04T17:22:43.199Z,99.90
2022-11-04T17:25:17.159Z,13.40
2022-11-04T17:27:44.616Z,5.10
2022-11-04T17:30:13.347Z,22.80
2022-11-04T17:32:41.316Z,99.90
2022-11-04T17:35:08.547Z,1.00
2022-11-04T17:37:35.298Z,1.00
2022-11-04T17:40:02.122Z,1.00
2022-11-04T17:42:47.691Z,1.00
2022-11-04T17:45:14.417Z,1.00
2022-11-04T17:47:41.336Z,99.90
2022-11-04T17:50:08.676Z,99.90
2022-11-04T17:52:35.993Z,99.90
2022-11-04T17:55:03.595Z,99.90
2022-11-04T17:57:30.441Z,99.90
2022-11-04T17:59:57.291Z,99.90
2022-11-04T18:05:01.638Z,99.90
2022-11-04T18:07:29.344Z,99.90
2022-11-04T18:09:56.811Z,99.90
2022-11-04T18:12:38.957Z,99.90
2022-11-04T18:15:11.081Z,99.90
2022-11-04T18:17:39.397Z,99.90
2022-11-04T18:20:13.298Z,99.90
2022-11-04T18:22:41.617Z,99.90
2022-11-04T18:25:09.444Z,99.90
2022-11-04T18:27:36.277Z,99.90
2022-11-04T18:30:03.645Z,99.90
2022-11-04T18:32:30.378Z,99.90
2022-11-04T18:34:57.702Z,1.00
2022-11-04T18:37:24.554Z,1.00
2022-11-04T18:39:51.254Z,1.00
2022-11-04T18:42:18.361Z,1.00
2022-11-04T18:44:45.110Z,99.90
2022-11-04T18:47:11.886Z,99.90
2022-11-04T18:49:38.634Z,99.90
2022-11-04T18:52:05.505Z,99.90
2022-11-04T18:54:32.355Z,99.90
2022-11-04T18:57:01.848Z,1.00
2022-11-04T18:59:28.648Z,1.00
2022-11-04T19:01:55.487Z,1.00
2022-11-04T19:04:22.316Z,1.00
2022-11-04T19:06:49.069Z,1.00
2022-11-04T19:12:22.764Z,1.00
2022-11-04T19:14:49.582Z,1.00
2022-11-04T19:17:16.340Z,1.00
2022-11-04T19:19:43.174Z,1.00
2022-11-04T19:22:14.687Z,1.00
2022-11-04T19:24:41.502Z,1.00
2022-11-04T19:27:08.308Z,1.00
2022-11-04T19:29:35.331Z,1.00
2022-11-04T19:32:02.341Z,1.00
2022-11-04T19:34:29.159Z,37.10
2022-11-04T19:36:55.938Z,99.90
2022-11-04T19:39:22.708Z,99.90
2022-11-04T19:42:08.321Z,98.70
2022-11-04T19:44:35.081Z,92.60
2022-11-04T19:47:01.890Z,1.40
2022-11-04T19:49:31.558Z,1.00
2022-11-04T19:51:59.055Z,1.00
2022-11-04T19:54:26.428Z,15.00
2022-11-04T19:56:53.213Z,1.00
2022-11-04T19:59:20.086Z,1.00
2022-11-04T20:01:47.146Z,39.50
2022-11-04T20:04:14.097Z,99.90
2022-11-04T20:06:40.922Z,99.90
2022-11-04T20:09:10.997Z,99.90
2022-11-04T20:11:57.270Z,35.70
2022-11-04T20:14:24.391Z,38.90
2022-11-04T20:16:51.507Z,10.20
2022-11-04T20:19:22.422Z,1.00
2022-11-04T20:21:49.938Z,1.00
2022-11-04T20:24:16.970Z,1.00
2022-11-04T20:26:44.539Z,1.00
2022-11-04T20:29:11.640Z,99.90
2022-11-04T20:31:39.357Z,1.00
2022-11-04T20:34:10.628Z,1.00
2022-11-04T20:36:38.268Z,1.00
2022-11-04T20:39:16.603Z,1.00
2022-11-04T20:41:43.886Z,1.00
2022-11-04T20:44:12.169Z,1.00
2022-11-04T20:46:39.237Z,1.00
2022-11-04T20:49:07.204Z,1.00
2022-11-04T20:51:36.007Z,1.00
2022-11-04T20:54:05.678Z,1.00
2022-11-04T20:56:35.014Z,1.00
2022-11-04T20:59:02.082Z,1.00
2022-11-04T21:01:31.766Z,1.60
2022-11-04T21:04:14.931Z,1.00
2022-11-04T21:06:42.518Z,1.00
2022-11-04T21:09:11.878Z,1.00
2022-11-04T21:11:39.651Z,1.00
2022-11-04T21:14:12.650Z,1.00
2022-11-04T21:16:39.794Z,1.00
2022-11-04T21:19:07.767Z,99.90
2022-11-04T21:21:34.693Z,1.00
2022-11-04T21:24:03.874Z,99.90
2022-11-04T21:26:34.091Z,1.00
2022-11-04T21:29:03.717Z,1.00
2022-11-04T21:31:31.876Z,1.00
2022-11-04T21:33:59.078Z,1.00
2022-11-04T21:36:26.169Z,99.90
2022-11-04T21:38:53.150Z,99.90
2022-11-04T21:41:24.398Z,99.90
2022-11-04T21:43:55.884Z,99.90
2022-11-04T21:46:23.167Z,99.90
2022-11-04T21:48:50.047Z,99.90
2022-11-04T21:51:19.285Z,99.90
2022-11-04T21:53:46.314Z,99.90
2022-11-04T21:56:15.726Z,99.90
2022-11-04T21:58:46.054Z,99.90
2022-11-04T22:01:18.772Z,99.90
2022-11-04T22:03:53.052Z,99.90
2022-11-04T22:06:20.113Z,81.30
2022-11-04T22:08:49.384Z,99.90
2022-11-04T22:11:22.341Z,99.90
2022-11-04T22:13:53.281Z,99.90
2022-11-04T22:16:22.501Z,99.90
2022-11-04T22:18:52.658Z,99.90
2022-11-04T22:21:20.518Z,99.90
2022-11-04T22:23:47.343Z,99.90
2022-11-04T22:26:17.429Z,99.90
2022-11-04T22:28:44.398Z,99.90
2022-11-04T22:31:19.887Z,99.90
2022-11-04T22:33:46.636Z,99.90
2022-11-04T22:36:14.078Z,99.90
2022-11-04T22:38:41.974Z,99.90
2022-11-04T22:41:18.468Z,1.00
2022-11-04T22:43:45.265Z,99.90
2022-11-04T22:46:13.311Z,99.90
2022-11-04T22:48:40.300Z,99.90
2022-11-04T22:51:09.176Z,99.90
2022-11-04T22:53:36.229Z,99.90
2022-11-04T22:56:04.417Z,99.90
2022-11-04T22:58:31.203Z,1.00
2022-11-04T23:01:06.780Z,1.00
2022-11-04T23:03:33.870Z,99.90
2022-11-04T23:06:02.210Z,1.00
2022-11-04T23:08:31.442Z,1.00
2022-11-04T23:11:20.477Z,99.90
2022-11-04T23:14:17.112Z,99.90
2022-11-04T23:17:08.041Z,99.90
2022-11-04T23:19:35.015Z,1.00
2022-11-04T23:22:20.541Z,1.00
2022-11-04T23:25:05.769Z,99.90
2022-11-04T23:27:52.338Z,99.90
2022-11-04T23:30:21.925Z,1.00
2022-11-04T23:32:49.629Z,99.90
2022-11-04T23:35:36.048Z,99.90
2022-11-04T23:38:02.848Z,99.90
2022-11-04T23:40:31.248Z,99.90
2022-11-04T23:42:58.243Z,99.90
2022-11-04T23:45:44.202Z,99.90
2022-11-04T23:48:32.055Z,99.90
2022-11-04T23:51:19.056Z,99.90
2022-11-04T23:54:05.591Z,99.90
2022-11-04T23:56:51.050Z,99.90
2022-11-04T23:59:37.762Z,99.90
